Portada
METAR-TAF:

METAR-TAF

Aeroports :

Edson, Alberta, Canadà

latitud: 53-35N, longitud: 116-28W, altitud: 921 m

Observació

L'informe es va fer fa 28 minuts, a les 02:00 UTC
Vent 3 kt del Oest/Nord-Oest, variant entre Sud-Oest i Nord-Oest
Temperatura -4°C
Humitat 100%
Pressió 1003 hPa
Visibilitat: 14.5 km
Escasses núvols a una alçada de 18000 ft
Núvols disperses a una alçada de 20000 ft

METAR: CYET 250200Z AUTO 29003KT 230V310 9SM FEW180 SCT200 M04/M04 A2963 RMK SLP082

Hora: 19:28 (02:28 UTC)


TAF: manca

Observacions i pronòstics meteorològics de més de 4000 aeroports (METAR i TAF).

Les estacions disponibles són els punts grocs i vermells al mapa.

Posi el ratolí al punt desitjat per veure el nom de l'estació.

Feu clic per veure les observacions i els pronòstics meteorològics.

Per canviar el mapa: feu clic els botons verds amb una creu de color negre per apropar; al botó verd amb un guió per allunyar la imatge; o en les fletxes verdes per a mapes adjacents.


METAR-TAF: